createdAt,value
2018-07-09T00:00:31.000Z,101110
2018-07-09T00:02:31.000Z,101110
2018-07-09T00:04:31.000Z,101112
2018-07-09T00:06:00.000Z,101109
2018-07-09T00:07:31.000Z,101112
2018-07-09T00:09:31.000Z,101112
2018-07-09T00:10:31.000Z,101112
2018-07-09T00:12:31.000Z,101110
2018-07-09T00:13:31.000Z,101113
2018-07-09T00:14:31.000Z,101112
2018-07-09T00:16:31.000Z,101113
2018-07-09T00:18:31.000Z,101122
2018-07-09T00:19:31.000Z,101118
2018-07-09T00:21:31.000Z,101116
2018-07-09T00:22:31.000Z,101119
2018-07-09T00:24:31.000Z,101119
2018-07-09T00:26:31.000Z,101121
2018-07-09T00:28:31.000Z,101124
2018-07-09T00:29:31.000Z,101124
2018-07-09T00:31:16.000Z,101119
2018-07-09T00:32:31.000Z,101111
2018-07-09T00:34:31.000Z,101116
2018-07-09T00:35:31.000Z,101117
2018-07-09T00:37:31.000Z,101116
2018-07-09T00:38:31.000Z,101115
2018-07-09T00:40:31.000Z,101118
2018-07-09T00:42:31.000Z,101129
2018-07-09T00:44:31.000Z,101125
2018-07-09T00:45:31.000Z,101130
2018-07-09T00:47:31.000Z,101133
2018-07-09T00:48:31.000Z,101126
2018-07-09T00:50:31.000Z,101130
2018-07-09T00:51:31.000Z,101122
2018-07-09T00:53:30.000Z,101124
2018-07-09T00:55:30.000Z,101128
2018-07-09T00:56:30.000Z,101121
2018-07-09T00:58:30.000Z,101130
2018-07-09T01:00:00.000Z,101129
2018-07-09T01:01:30.000Z,101125
2018-07-09T01:03:30.000Z,101123
2018-07-09T01:05:30.000Z,101125
2018-07-09T01:06:30.000Z,101123
2018-07-09T01:08:30.000Z,101122
2018-07-09T01:10:15.000Z,101125
2018-07-09T01:11:30.000Z,101128
2018-07-09T01:12:30.000Z,101128
2018-07-09T01:14:15.000Z,101133
2018-07-09T01:15:30.000Z,101129
2018-07-09T01:17:30.000Z,101128
2018-07-09T01:19:30.000Z,101129
2018-07-09T01:21:30.000Z,101121
2018-07-09T01:22:30.000Z,101120
2018-07-09T01:24:30.000Z,101116
2018-07-09T01:25:30.000Z,101119
2018-07-09T01:27:30.000Z,101110
2018-07-09T01:28:30.000Z,101112
2018-07-09T01:29:30.000Z,101102
2018-07-09T01:31:15.000Z,101109
2018-07-09T01:32:30.000Z,101111
2018-07-09T01:34:15.000Z,101107
2018-07-09T01:35:30.000Z,101109
2018-07-09T01:36:30.000Z,101107
2018-07-09T01:38:30.000Z,101107
2018-07-09T01:39:30.000Z,101108
2018-07-09T01:41:30.000Z,101107
2018-07-09T01:43:30.000Z,101106
2018-07-09T01:45:30.000Z,101110
2018-07-09T01:46:30.000Z,101102
2018-07-09T01:47:30.000Z,101105
2018-07-09T01:49:30.000Z,101102
2018-07-09T01:50:30.000Z,101104
2018-07-09T01:52:30.000Z,101095
2018-07-09T01:54:30.000Z,101091
2018-07-09T01:56:30.000Z,101088
2018-07-09T01:57:31.000Z,101090
2018-07-09T01:59:31.000Z,101092
2018-07-09T02:01:31.000Z,101093
2018-07-09T02:03:31.000Z,101092
2018-07-09T02:05:31.000Z,101092
2018-07-09T02:07:31.000Z,101094
2018-07-09T02:09:31.000Z,101099
2018-07-09T02:10:31.000Z,101103
2018-07-09T02:12:31.000Z,101098
2018-07-09T02:13:31.000Z,101092
2018-07-09T02:15:31.000Z,101101
2018-07-09T02:17:31.000Z,101094
2018-07-09T02:19:31.000Z,101093
2018-07-09T02:21:31.000Z,101092
2018-07-09T02:23:31.000Z,101096
2018-07-09T02:25:31.000Z,101094
2018-07-09T02:27:16.000Z,101093
2018-07-09T02:28:31.000Z,101091
2018-07-09T02:30:16.000Z,101094
2018-07-09T02:31:31.000Z,101095
2018-07-09T02:33:31.000Z,101099
2018-07-09T02:35:31.000Z,101100
2018-07-09T02:37:31.000Z,101101
2018-07-09T02:39:31.000Z,101094
2018-07-09T02:40:31.000Z,101095
2018-07-09T02:42:16.000Z,101096
2018-07-09T02:43:31.000Z,101095
2018-07-09T02:44:31.000Z,101093
2018-07-09T02:46:31.000Z,101098
2018-07-09T02:47:31.000Z,101099
2018-07-09T02:48:31.000Z,101096
2018-07-09T02:50:31.000Z,101094
2018-07-09T02:51:31.000Z,101102
2018-07-09T02:53:31.000Z,101100
2018-07-09T02:55:31.000Z,101103
2018-07-09T02:57:31.000Z,101099
2018-07-09T02:59:16.000Z,101101
2018-07-09T03:00:30.000Z,101100
2018-07-09T03:02:30.000Z,101100
2018-07-09T03:04:30.000Z,101100
2018-07-09T03:06:30.000Z,101102
2018-07-09T03:08:30.000Z,101102
2018-07-09T03:10:30.000Z,101103
2018-07-09T03:12:30.000Z,101101
2018-07-09T03:14:30.000Z,101101
2018-07-09T03:16:30.000Z,101107
2018-07-09T03:18:30.000Z,101114
2018-07-09T03:19:30.000Z,101110
2018-07-09T03:21:30.000Z,101119
2018-07-09T03:23:30.000Z,101109
2018-07-09T03:25:30.000Z,101118
2018-07-09T03:27:30.000Z,101119
2018-07-09T03:29:30.000Z,101115
2018-07-09T03:31:30.000Z,101115
2018-07-09T03:33:30.000Z,101112
2018-07-09T03:35:30.000Z,101109
2018-07-09T03:36:30.000Z,101113
2018-07-09T03:38:30.000Z,101115
2018-07-09T03:39:30.000Z,101114
2018-07-09T03:41:15.000Z,101115
2018-07-09T03:42:30.000Z,101119
2018-07-09T03:44:30.000Z,101121
2018-07-09T03:46:30.000Z,101123
2018-07-09T03:48:15.000Z,101127
2018-07-09T03:49:30.000Z,101128
2018-07-09T03:51:15.000Z,101132
2018-07-09T03:52:30.000Z,101128
2018-07-09T03:53:30.000Z,101133
2018-07-09T03:55:30.000Z,101130
2018-07-09T03:56:30.000Z,101131
2018-07-09T03:58:00.000Z,101127
2018-07-09T03:59:30.000Z,101128
2018-07-09T04:01:30.000Z,101120
2018-07-09T04:02:30.000Z,101130
2018-07-09T04:04:15.000Z,101129
2018-07-09T04:05:31.000Z,101139
2018-07-09T04:06:31.000Z,101141
2018-07-09T04:08:31.000Z,101142
2018-07-09T04:10:31.000Z,101138
2018-07-09T04:12:15.000Z,101139
2018-07-09T04:13:31.000Z,101136
2018-07-09T04:15:31.000Z,101140
2018-07-09T04:16:31.000Z,101140
2018-07-09T04:18:31.000Z,101140
2018-07-09T04:20:31.000Z,101136
2018-07-09T04:21:31.000Z,101138
2018-07-09T04:23:31.000Z,101132
2018-07-09T04:25:31.000Z,101130
2018-07-09T04:27:31.000Z,101132
2018-07-09T04:29:15.000Z,101136
2018-07-09T04:30:31.000Z,101144
2018-07-09T04:31:31.000Z,101141
2018-07-09T04:33:31.000Z,101141
2018-07-09T04:35:15.000Z,101145
2018-07-09T04:36:15.000Z,101149
2018-07-09T04:37:31.000Z,101149
2018-07-09T04:39:15.000Z,101150
2018-07-09T04:40:31.000Z,101149
2018-07-09T04:41:31.000Z,101149
2018-07-09T04:43:31.000Z,101147
2018-07-09T04:45:15.000Z,101150
2018-07-09T04:46:31.000Z,101149
2018-07-09T04:48:31.000Z,101146
2018-07-09T04:50:31.000Z,101146
2018-07-09T04:52:31.000Z,101141
2018-07-09T04:54:31.000Z,101148
2018-07-09T04:56:31.000Z,101141
2018-07-09T04:58:31.000Z,101151
2018-07-09T04:59:31.000Z,101146
2018-07-09T05:00:31.000Z,101153
2018-07-09T05:02:31.000Z,101156
2018-07-09T05:03:31.000Z,101152
2018-07-09T05:04:31.000Z,101156
2018-07-09T05:06:31.000Z,101146
2018-07-09T05:07:31.000Z,101145
2018-07-09T05:09:31.000Z,101146
2018-07-09T05:10:31.000Z,101150
2018-07-09T05:11:31.000Z,101153
2018-07-09T05:13:31.000Z,101153
2018-07-09T05:15:16.000Z,101150
2018-07-09T05:16:31.000Z,101155
2018-07-09T05:17:31.000Z,101150
2018-07-09T05:19:16.000Z,101153
2018-07-09T05:20:31.000Z,101155
2018-07-09T05:22:31.000Z,101159
2018-07-09T05:24:31.000Z,101160
2018-07-09T05:25:31.000Z,101158
2018-07-09T05:27:31.000Z,101155
2018-07-09T05:28:31.000Z,101154
2018-07-09T05:30:16.000Z,101152
2018-07-09T05:31:31.000Z,101155
2018-07-09T05:33:31.000Z,101149
2018-07-09T05:34:31.000Z,101153
2018-07-09T05:35:31.000Z,101157
2018-07-09T05:37:31.000Z,101148
2018-07-09T05:39:31.000Z,101150
2018-07-09T05:41:31.000Z,101148
2018-07-09T05:43:31.000Z,101142
2018-07-09T05:44:31.000Z,101145
2018-07-09T05:45:31.000Z,101148
2018-07-09T05:47:31.000Z,101141
2018-07-09T05:49:31.000Z,101142
2018-07-09T05:51:31.000Z,101140
2018-07-09T05:53:31.000Z,101139
2018-07-09T05:55:31.000Z,101139
2018-07-09T05:57:31.000Z,101141
2018-07-09T05:59:31.000Z,101143
2018-07-09T06:00:31.000Z,101141
2018-07-09T06:02:31.000Z,101145
2018-07-09T06:03:31.000Z,101139
2018-07-09T06:04:31.000Z,101142
2018-07-09T06:06:31.000Z,101137
2018-07-09T06:08:16.000Z,101133
2018-07-09T06:09:31.000Z,101135
2018-07-09T06:11:16.000Z,101131
2018-07-09T06:12:31.000Z,101131
2018-07-09T06:13:31.000Z,101126
2018-07-09T06:15:31.000Z,101121
2018-07-09T06:16:31.000Z,101117
2018-07-09T06:18:31.000Z,101123
2018-07-09T06:20:31.000Z,101119
2018-07-09T06:22:31.000Z,101123
2018-07-09T06:24:31.000Z,101122
2018-07-09T06:25:31.000Z,101121
2018-07-09T06:27:31.000Z,101126
2018-07-09T06:28:31.000Z,101133
2018-07-09T06:29:31.000Z,101130
2018-07-09T06:31:31.000Z,101135
2018-07-09T06:32:31.000Z,101133
2018-07-09T06:33:31.000Z,101132
2018-07-09T06:35:31.000Z,101127
2018-07-09T06:37:31.000Z,101118
2018-07-09T06:38:31.000Z,101120
2018-07-09T06:40:31.000Z,101116
2018-07-09T06:41:31.000Z,101119
2018-07-09T06:43:16.000Z,101120
2018-07-09T06:44:31.000Z,101117
2018-07-09T06:46:31.000Z,101124
2018-07-09T06:48:31.000Z,101130
2018-07-09T06:52:31.000Z,101141
2018-07-09T06:54:17.000Z,101145
2018-07-09T06:55:17.000Z,101142
2018-07-09T06:57:17.000Z,101151
2018-07-09T06:58:17.000Z,101145
2018-07-09T07:00:17.000Z,101150
2018-07-09T07:01:17.000Z,101145
2018-07-09T07:03:17.000Z,101144
2018-07-09T07:05:17.000Z,101137
2018-07-09T07:06:17.000Z,101141
2018-07-09T07:08:17.000Z,101142
2018-07-09T07:10:17.000Z,101142
2018-07-09T07:12:02.000Z,101153
2018-07-09T07:13:17.000Z,101141
2018-07-09T07:14:16.000Z,101147
2018-07-09T07:16:16.000Z,101148
2018-07-09T07:20:02.000Z,101145
2018-07-09T07:22:02.000Z,101144
2018-07-09T07:23:32.000Z,101146
2018-07-09T07:25:02.000Z,101143
2018-07-09T07:27:02.000Z,101142
2018-07-09T07:28:02.000Z,101141
2018-07-09T07:30:02.000Z,101144
2018-07-09T07:31:47.000Z,101144
2018-07-09T07:33:02.000Z,101150
2018-07-09T07:35:02.000Z,101141
2018-07-09T07:37:02.000Z,101139
2018-07-09T07:38:02.000Z,101136
2018-07-09T07:40:02.000Z,101132
2018-07-09T07:41:02.000Z,101143
2018-07-09T07:42:47.000Z,101133
2018-07-09T07:44:02.000Z,101132
2018-07-09T07:45:02.000Z,101130
2018-07-09T07:47:02.000Z,101127
2018-07-09T07:49:02.000Z,101124
2018-07-09T07:50:02.000Z,101129
2018-07-09T07:52:02.000Z,101123
2018-07-09T07:53:02.000Z,101127
2018-07-09T07:55:02.000Z,101127
2018-07-09T07:56:02.000Z,101121
2018-07-09T07:58:02.000Z,101121
2018-07-09T07:59:47.000Z,101127
2018-07-09T08:01:02.000Z,101133
2018-07-09T08:03:02.000Z,101138
2018-07-09T08:04:47.000Z,101134
2018-07-09T08:06:02.000Z,101136
2018-07-09T08:08:02.000Z,101136
2018-07-09T08:09:02.000Z,101133
2018-07-09T08:10:32.000Z,101127
2018-07-09T08:11:32.000Z,101129
2018-07-09T08:12:47.000Z,101124
2018-07-09T08:14:02.000Z,101127
2018-07-09T08:15:02.000Z,101126
2018-07-09T08:16:02.000Z,101124
2018-07-09T08:17:02.000Z,101122
2018-07-09T08:19:03.000Z,101114
2018-07-09T08:21:03.000Z,101112
2018-07-09T08:23:03.000Z,101113
2018-07-09T08:25:03.000Z,101106
2018-07-09T08:26:33.000Z,101103
2018-07-09T08:28:03.000Z,101107
2018-07-09T08:29:03.000Z,101100
2018-07-09T08:30:03.000Z,101109
2018-07-09T08:32:03.000Z,101095
2018-07-09T08:33:48.000Z,101093
2018-07-09T08:35:03.000Z,101093
2018-07-09T08:36:03.000Z,101094
2018-07-09T08:37:03.000Z,101094
2018-07-09T08:39:03.000Z,101089
2018-07-09T08:41:03.000Z,101088
2018-07-09T08:43:03.000Z,101087
2018-07-09T08:44:03.000Z,101087
2018-07-09T08:45:48.000Z,101090
2018-07-09T08:46:48.000Z,101085
2018-07-09T08:48:03.000Z,101088
2018-07-09T08:50:03.000Z,101086
2018-07-09T08:51:03.000Z,101085
2018-07-09T08:53:03.000Z,101084
2018-07-09T08:54:03.000Z,101086
2018-07-09T08:56:03.000Z,101084
2018-07-09T08:58:03.000Z,101089
2018-07-09T09:00:03.000Z,101084
2018-07-09T09:02:03.000Z,101093
2018-07-09T09:04:03.000Z,101084
2018-07-09T09:06:03.000Z,101083
2018-07-09T09:08:03.000Z,101092
2018-07-09T09:09:03.000Z,101086
2018-07-09T09:11:03.000Z,101085
2018-07-09T09:13:03.000Z,101085
2018-07-09T09:15:03.000Z,101084
2018-07-09T09:16:03.000Z,101084
2018-07-09T09:18:03.000Z,101082
2018-07-09T09:19:03.000Z,101085
2018-07-09T09:21:03.000Z,101083
2018-07-09T09:22:47.000Z,101085
2018-07-09T09:24:03.000Z,101077
2018-07-09T09:29:03.000Z,101069
2018-07-09T09:30:33.000Z,101070
2018-07-09T09:31:48.000Z,101074
2018-07-09T09:33:48.000Z,101075
2018-07-09T09:34:48.000Z,101072
2018-07-09T09:36:33.000Z,101073
2018-07-09T09:37:48.000Z,101070
2018-07-09T09:39:48.000Z,101075
2018-07-09T09:40:48.000Z,101067
2018-07-09T09:42:33.000Z,101065
2018-07-09T09:43:48.000Z,101060
2018-07-09T09:44:48.000Z,101065
2018-07-09T09:45:48.000Z,101070
2018-07-09T09:46:48.000Z,101070
2018-07-09T09:48:48.000Z,101070
2018-07-09T09:50:48.000Z,101073
2018-07-09T09:52:33.000Z,101066
2018-07-09T09:53:48.000Z,101066
2018-07-09T09:54:49.000Z,101066
2018-07-09T09:56:48.000Z,101061
2018-07-09T09:57:48.000Z,101062
2018-07-09T09:59:49.000Z,101060
2018-07-09T10:01:48.000Z,101056
2018-07-09T10:03:33.000Z,101066
2018-07-09T10:04:48.000Z,101062
2018-07-09T10:06:48.000Z,101051
2018-07-09T10:07:48.000Z,101056
2018-07-09T10:09:48.000Z,101056
2018-07-09T10:11:33.000Z,101056
2018-07-09T10:12:48.000Z,101055
2018-07-09T10:14:33.000Z,101051
2018-07-09T10:15:48.000Z,101058
2018-07-09T10:17:48.000Z,101056
2018-07-09T10:19:48.000Z,101052
2018-07-09T10:21:48.000Z,101047
2018-07-09T10:23:48.000Z,101053
2018-07-09T10:25:48.000Z,101052
2018-07-09T10:27:48.000Z,101054
2018-07-09T10:29:48.000Z,101049
2018-07-09T10:31:33.000Z,101053
2018-07-09T10:32:48.000Z,101042
2018-07-09T10:34:48.000Z,101043
2018-07-09T10:36:48.000Z,101042
2018-07-09T10:37:48.000Z,101040
2018-07-09T10:39:48.000Z,101046
2018-07-09T10:41:48.000Z,101045
2018-07-09T10:42:48.000Z,101046
2018-07-09T10:43:48.000Z,101044
2018-07-09T10:45:48.000Z,101045
2018-07-09T10:46:48.000Z,101038
2018-07-09T10:47:48.000Z,101043
2018-07-09T10:49:48.000Z,101047
2018-07-09T10:51:48.000Z,101033
2018-07-09T10:53:48.000Z,101036
2018-07-09T10:54:48.000Z,101035
2018-07-09T10:56:33.000Z,101026
2018-07-09T10:57:48.000Z,101033
2018-07-09T10:59:48.000Z,101024
2018-07-09T11:00:48.000Z,101023
2018-07-09T11:01:48.000Z,101023
2018-07-09T11:03:33.000Z,101021
2018-07-09T11:04:48.000Z,101020
2018-07-09T11:06:48.000Z,101023
2018-07-09T11:08:33.000Z,101025
2018-07-09T11:09:48.000Z,101025
2018-07-09T11:11:18.000Z,101035
2018-07-09T11:12:48.000Z,101034
2018-07-09T11:14:48.000Z,101035
2018-07-09T11:16:48.000Z,101029
2018-07-09T11:18:33.000Z,101023
2018-07-09T11:19:48.000Z,101019
2018-07-09T11:20:48.000Z,101023
2018-07-09T11:22:48.000Z,101019
2018-07-09T11:24:48.000Z,101019
2018-07-09T11:26:48.000Z,101026
2018-07-09T11:28:48.000Z,101024
2018-07-09T11:30:48.000Z,101024
2018-07-09T11:32:48.000Z,101020
2018-07-09T11:33:48.000Z,101019
2018-07-09T11:35:48.000Z,101020
2018-07-09T11:36:48.000Z,101016
2018-07-09T11:38:33.000Z,101023
2018-07-09T11:39:48.000Z,101027
2018-07-09T11:40:48.000Z,101024
2018-07-09T11:42:48.000Z,101018
2018-07-09T11:44:48.000Z,101024
2018-07-09T11:45:48.000Z,101018
2018-07-09T11:47:48.000Z,101014
2018-07-09T11:49:48.000Z,101023
2018-07-09T11:51:48.000Z,101025
2018-07-09T11:52:48.000Z,101021
2018-07-09T11:54:48.000Z,101023
2018-07-09T11:56:48.000Z,101021
2018-07-09T11:58:48.000Z,101020
2018-07-09T12:00:48.000Z,101023
2018-07-09T12:02:48.000Z,101025
2018-07-09T12:04:48.000Z,101022
2018-07-09T12:06:48.000Z,101021
2018-07-09T12:08:48.000Z,101019
2018-07-09T12:10:48.000Z,101018
2018-07-09T12:12:48.000Z,101015
2018-07-09T12:14:48.000Z,101012
2018-07-09T12:16:18.000Z,101008
2018-07-09T12:17:48.000Z,101011
2018-07-09T12:18:48.000Z,101013
2018-07-09T12:20:48.000Z,101015
2018-07-09T12:21:48.000Z,101016
2018-07-09T12:23:48.000Z,101009
2018-07-09T12:24:48.000Z,101008
2018-07-09T12:26:48.000Z,101003
2018-07-09T12:28:33.000Z,101007
2018-07-09T12:29:48.000Z,101003
2018-07-09T12:31:49.000Z,101003
2018-07-09T12:32:49.000Z,100996
2018-07-09T12:34:19.000Z,100994
2018-07-09T12:35:49.000Z,100996
2018-07-09T12:37:49.000Z,100997
2018-07-09T12:39:49.000Z,100990
2018-07-09T12:40:49.000Z,100987
2018-07-09T12:42:34.000Z,100985
2018-07-09T12:43:49.000Z,100985
2018-07-09T12:45:34.000Z,100987
2018-07-09T12:46:49.000Z,100983
2018-07-09T12:48:49.000Z,100985
2018-07-09T12:49:49.000Z,100987
2018-07-09T12:51:49.000Z,100984
2018-07-09T12:53:49.000Z,100983
2018-07-09T12:55:34.000Z,100987
2018-07-09T12:56:49.000Z,100982
2018-07-09T12:57:49.000Z,100990
2018-07-09T12:59:49.000Z,100988
2018-07-09T13:00:49.000Z,100984
2018-07-09T13:02:49.000Z,100985
2018-07-09T13:04:49.000Z,100981
2018-07-09T13:06:49.000Z,100983
2018-07-09T13:08:34.000Z,100976
2018-07-09T13:09:49.000Z,100975
2018-07-09T13:11:49.000Z,100977
2018-07-09T13:13:49.000Z,100975
2018-07-09T13:15:49.000Z,100968
2018-07-09T13:16:49.000Z,100970
2018-07-09T13:18:49.000Z,100969
2018-07-09T13:19:49.000Z,100970
2018-07-09T13:21:49.000Z,100966
2018-07-09T13:22:49.000Z,100963
2018-07-09T13:24:49.000Z,100971
2018-07-09T13:26:49.000Z,100963
2018-07-09T13:27:49.000Z,100965
2018-07-09T13:29:49.000Z,100966
2018-07-09T13:31:49.000Z,100957
2018-07-09T13:33:49.000Z,100952
2018-07-09T13:35:49.000Z,100960
2018-07-09T13:37:49.000Z,100955
2018-07-09T13:38:49.000Z,100953
2018-07-09T13:40:49.000Z,100951
2018-07-09T13:42:49.000Z,100950
2018-07-09T13:43:49.000Z,100940
2018-07-09T13:45:49.000Z,100945
2018-07-09T13:46:49.000Z,100945
2018-07-09T13:48:49.000Z,100943
2018-07-09T13:50:34.000Z,100942
2018-07-09T13:51:49.000Z,100946
2018-07-09T13:53:49.000Z,100939
2018-07-09T13:55:49.000Z,100941
2018-07-09T13:57:49.000Z,100936
2018-07-09T13:59:34.000Z,100940
2018-07-09T14:00:49.000Z,100934
2018-07-09T14:02:49.000Z,100927
2018-07-09T14:03:49.000Z,100931
2018-07-09T14:05:34.000Z,100922
2018-07-09T14:06:49.000Z,100924
2018-07-09T14:08:49.000Z,100920
2018-07-09T14:10:49.000Z,100914
2018-07-09T14:12:49.000Z,100915
2018-07-09T14:13:49.000Z,100909
2018-07-09T14:15:34.000Z,100903
2018-07-09T14:16:49.000Z,100910
2018-07-09T14:18:34.000Z,100906
2018-07-09T14:19:49.000Z,100911
2018-07-09T14:21:49.000Z,100898
2018-07-09T14:22:49.000Z,100906
2018-07-09T14:24:49.000Z,100904
2018-07-09T14:25:49.000Z,100894
2018-07-09T14:27:49.000Z,100895
2018-07-09T14:28:49.000Z,100893
2018-07-09T14:30:49.000Z,100896
2018-07-09T14:32:49.000Z,100889
2018-07-09T14:34:34.000Z,100887
2018-07-09T14:35:49.000Z,100892
2018-07-09T14:37:49.000Z,100890
2018-07-09T14:42:49.000Z,100886
2018-07-09T14:44:35.000Z,100884
2018-07-09T14:46:35.000Z,100877
2018-07-09T14:48:35.000Z,100877
2018-07-09T14:50:35.000Z,100874
2018-07-09T14:51:35.000Z,100870
2018-07-09T14:53:35.000Z,100868
2018-07-09T14:55:20.000Z,100872
2018-07-09T14:56:35.000Z,100871
2018-07-09T14:58:35.000Z,100872
2018-07-09T14:59:35.000Z,100875
2018-07-09T15:00:35.000Z,100877
2018-07-09T15:02:35.000Z,100881
2018-07-09T15:04:35.000Z,100881
2018-07-09T15:06:35.000Z,100875
2018-07-09T15:08:35.000Z,100878
2018-07-09T15:10:35.000Z,100878
2018-07-09T15:11:35.000Z,100873
2018-07-09T15:13:35.000Z,100871
2018-07-09T15:15:35.000Z,100871
2018-07-09T15:16:35.000Z,100868
2018-07-09T15:17:35.000Z,100871
2018-07-09T15:19:35.000Z,100868
2018-07-09T15:20:35.000Z,100863
2018-07-09T15:22:35.000Z,100860
2018-07-09T15:24:35.000Z,100860
2018-07-09T15:26:35.000Z,100849
2018-07-09T15:28:35.000Z,100852
2018-07-09T15:30:35.000Z,100848
2018-07-09T15:32:20.000Z,100850
2018-07-09T15:33:35.000Z,100844
2018-07-09T15:35:35.000Z,100838
2018-07-09T15:37:35.000Z,100839
2018-07-09T15:39:35.000Z,100839
2018-07-09T15:40:35.000Z,100843
2018-07-09T15:42:20.000Z,100839
2018-07-09T15:43:35.000Z,100839
2018-07-09T15:44:35.000Z,100835
2018-07-09T15:46:35.000Z,100832
2018-07-09T15:48:20.000Z,100836
2018-07-09T15:49:35.000Z,100832
2018-07-09T15:51:35.000Z,100835
2018-07-09T15:52:35.000Z,100831
2018-07-09T15:54:35.000Z,100823
2018-07-09T15:56:35.000Z,100825
2018-07-09T15:57:35.000Z,100829
2018-07-09T15:59:20.000Z,100827
2018-07-09T16:00:35.000Z,100827
2018-07-09T16:01:35.000Z,100821
2018-07-09T16:03:35.000Z,100829
2018-07-09T16:04:35.000Z,100822
2018-07-09T16:05:35.000Z,100817
2018-07-09T16:07:35.000Z,100810
2018-07-09T16:08:35.000Z,100807
2018-07-09T16:10:35.000Z,100811
2018-07-09T16:12:35.000Z,100810
2018-07-09T16:14:35.000Z,100810
2018-07-09T16:15:35.000Z,100811
2018-07-09T16:17:35.000Z,100807
2018-07-09T16:18:35.000Z,100806
2018-07-09T16:20:35.000Z,100804
2018-07-09T16:22:35.000Z,100809
2018-07-09T16:24:35.000Z,100802
2018-07-09T16:25:35.000Z,100805
2018-07-09T16:27:35.000Z,100810
2018-07-09T16:29:35.000Z,100803
2018-07-09T16:30:35.000Z,100804
2018-07-09T16:32:35.000Z,100799
2018-07-09T16:34:35.000Z,100795
2018-07-09T16:35:35.000Z,100794
2018-07-09T16:36:35.000Z,100794
2018-07-09T16:37:35.000Z,100791
2018-07-09T16:39:35.000Z,100789
2018-07-09T16:40:35.000Z,100783
2018-07-09T16:42:35.000Z,100781
2018-07-09T16:44:35.000Z,100788
2018-07-09T16:46:34.000Z,100787
2018-07-09T16:47:34.000Z,100794
2018-07-09T16:49:34.000Z,100787
2018-07-09T16:51:34.000Z,100788
2018-07-09T16:53:34.000Z,100789
2018-07-09T16:54:34.000Z,100789
2018-07-09T16:56:34.000Z,100786
2018-07-09T16:58:34.000Z,100781
2018-07-09T16:59:34.000Z,100779
2018-07-09T17:00:34.000Z,100776
2018-07-09T17:02:34.000Z,100778
2018-07-09T17:04:19.000Z,100769
2018-07-09T17:05:34.000Z,100772
2018-07-09T17:07:19.000Z,100767
2018-07-09T17:08:34.000Z,100774
2018-07-09T17:10:19.000Z,100775
2018-07-09T17:11:34.000Z,100775
2018-07-09T17:12:34.000Z,100771
2018-07-09T17:14:04.000Z,100768
2018-07-09T17:15:34.000Z,100775
2018-07-09T17:16:34.000Z,100773
2018-07-09T17:18:34.000Z,100774
2018-07-09T17:19:34.000Z,100768
2018-07-09T17:21:19.000Z,100773
2018-07-09T17:22:34.000Z,100771
2018-07-09T17:23:34.000Z,100771
2018-07-09T17:24:34.000Z,100762
2018-07-09T17:26:34.000Z,100762
2018-07-09T17:27:34.000Z,100764
2018-07-09T17:29:34.000Z,100761
2018-07-09T17:31:34.000Z,100765
2018-07-09T17:32:34.000Z,100760
2018-07-09T17:34:34.000Z,100768
2018-07-09T17:35:34.000Z,100762
2018-07-09T17:36:34.000Z,100763
2018-07-09T17:38:34.000Z,100762
2018-07-09T17:39:34.000Z,100762
2018-07-09T17:41:34.000Z,100759
2018-07-09T17:42:34.000Z,100756
2018-07-09T17:44:34.000Z,100752
2018-07-09T17:45:34.000Z,100752
2018-07-09T17:47:34.000Z,100751
2018-07-09T17:49:19.000Z,100751
2018-07-09T17:50:35.000Z,100750
2018-07-09T17:52:35.000Z,100744
2018-07-09T17:54:35.000Z,100750
2018-07-09T17:55:35.000Z,100751
2018-07-09T17:57:35.000Z,100751
2018-07-09T17:59:35.000Z,100749
2018-07-09T18:01:35.000Z,100754
2018-07-09T18:03:35.000Z,100755
2018-07-09T18:04:35.000Z,100756
2018-07-09T18:06:35.000Z,100753
2018-07-09T18:08:35.000Z,100758
2018-07-09T18:10:35.000Z,100748
2018-07-09T18:11:35.000Z,100750
2018-07-09T18:12:35.000Z,100751
2018-07-09T18:14:35.000Z,100751
2018-07-09T18:16:35.000Z,100748
2018-07-09T18:17:35.000Z,100748
2018-07-09T18:19:35.000Z,100748
2018-07-09T18:20:35.000Z,100749
2018-07-09T18:22:35.000Z,100750
2018-07-09T18:24:35.000Z,100746
2018-07-09T18:25:35.000Z,100748
2018-07-09T18:27:35.000Z,100744
2018-07-09T18:29:35.000Z,100739
2018-07-09T18:31:35.000Z,100743
2018-07-09T18:33:35.000Z,100749
2018-07-09T18:35:35.000Z,100748
2018-07-09T18:36:35.000Z,100757
2018-07-09T18:38:35.000Z,100751
2018-07-09T18:40:35.000Z,100739
2018-07-09T18:41:35.000Z,100741
2018-07-09T18:43:35.000Z,100739
2018-07-09T18:45:35.000Z,100740
2018-07-09T18:46:35.000Z,100739
2018-07-09T18:48:35.000Z,100735
2018-07-09T18:50:35.000Z,100738
2018-07-09T18:51:35.000Z,100738
2018-07-09T18:53:35.000Z,100736
2018-07-09T18:55:35.000Z,100742
2018-07-09T18:56:35.000Z,100738
2018-07-09T18:58:35.000Z,100740
2018-07-09T19:00:20.000Z,100751
2018-07-09T19:01:35.000Z,100737
2018-07-09T19:02:35.000Z,100740
2018-07-09T19:03:35.000Z,100740
2018-07-09T19:05:35.000Z,100742
2018-07-09T19:07:35.000Z,100741
2018-07-09T19:09:35.000Z,100738
2018-07-09T19:11:35.000Z,100742
2018-07-09T19:12:35.000Z,100739
2018-07-09T19:13:35.000Z,100736
2018-07-09T19:15:35.000Z,100734
2018-07-09T19:17:35.000Z,100735
2018-07-09T19:19:20.000Z,100735
2018-07-09T19:20:35.000Z,100737
2018-07-09T19:21:35.000Z,100739
2018-07-09T19:23:35.000Z,100744
2018-07-09T19:24:35.000Z,100740
2018-07-09T19:26:35.000Z,100742
2018-07-09T19:27:35.000Z,100746
2018-07-09T19:29:35.000Z,100745
2018-07-09T19:31:35.000Z,100750
2018-07-09T19:33:35.000Z,100750
2018-07-09T19:35:35.000Z,100751
2018-07-09T19:36:35.000Z,100754
2018-07-09T19:38:35.000Z,100757
2018-07-09T19:40:35.000Z,100752
2018-07-09T19:42:35.000Z,100753
2018-07-09T19:44:35.000Z,100749
2018-07-09T19:46:35.000Z,100757
2018-07-09T19:48:35.000Z,100757
2018-07-09T19:49:35.000Z,100761
2018-07-09T19:51:35.000Z,100760
2018-07-09T19:53:35.000Z,100766
2018-07-09T19:54:35.000Z,100762
2018-07-09T19:56:35.000Z,100763
2018-07-09T19:58:35.000Z,100764
2018-07-09T19:59:35.000Z,100761
2018-07-09T20:00:35.000Z,100758
2018-07-09T20:02:35.000Z,100756
2018-07-09T20:04:35.000Z,100759
2018-07-09T20:05:35.000Z,100753
2018-07-09T20:07:35.000Z,100756
2018-07-09T20:09:35.000Z,100762
2018-07-09T20:10:35.000Z,100762
2018-07-09T20:11:35.000Z,100757
2018-07-09T20:13:35.000Z,100755
2018-07-09T20:15:35.000Z,100764
2018-07-09T20:16:35.000Z,100760
2018-07-09T20:18:35.000Z,100763
2018-07-09T20:19:35.000Z,100758